sensor_id;sensor_type;location;lat;lon;timestamp;temperature;humidity
70336;SHT31;57756;47.408;18.940;2022-08-19T00:01:41;25.06;60.94
70336;SHT31;57756;47.408;18.940;2022-08-19T00:04:11;25.02;61.07
70336;SHT31;57756;47.408;18.940;2022-08-19T00:06:38;25.02;60.93
70336;SHT31;57756;47.408;18.940;2022-08-19T00:09:07;25.02;60.72
70336;SHT31;57756;47.408;18.940;2022-08-19T00:11:33;25.05;60.48
70336;SHT31;57756;47.408;18.940;2022-08-19T00:14:01;25.12;59.59
70336;SHT31;57756;47.408;18.940;2022-08-19T00:16:27;25.07;60.32
70336;SHT31;57756;47.408;18.940;2022-08-19T00:18:54;25.07;60.52
70336;SHT31;57756;47.408;18.940;2022-08-19T00:21:24;25.05;60.70
70336;SHT31;57756;47.408;18.940;2022-08-19T00:23:49;24.97;61.24
70336;SHT31;57756;47.408;18.940;2022-08-19T00:26:15;24.92;61.19
70336;SHT31;57756;47.408;18.940;2022-08-19T00:28:41;24.92;61.00
70336;SHT31;57756;47.408;18.940;2022-08-19T00:31:08;24.99;60.87
70336;SHT31;57756;47.408;18.940;2022-08-19T00:33:33;25.00;60.77
70336;SHT31;57756;47.408;18.940;2022-08-19T00:36:00;24.95;60.56
70336;SHT31;57756;47.408;18.940;2022-08-19T00:38:26;24.92;61.26
70336;SHT31;57756;47.408;18.940;2022-08-19T00:40:51;24.92;60.72
70336;SHT31;57756;47.408;18.940;2022-08-19T00:43:22;24.88;60.89
70336;SHT31;57756;47.408;18.940;2022-08-19T00:45:48;24.88;61.78
70336;SHT31;57756;47.408;18.940;2022-08-19T00:48:15;24.88;61.10
70336;SHT31;57756;47.408;18.940;2022-08-19T00:50:42;24.93;60.28
70336;SHT31;57756;47.408;18.940;2022-08-19T00:53:10;25.07;59.89
70336;SHT31;57756;47.408;18.940;2022-08-19T00:55:37;25.27;58.78
70336;SHT31;57756;47.408;18.940;2022-08-19T00:58:07;25.28;59.54
70336;SHT31;57756;47.408;18.940;2022-08-19T01:00:36;25.23;59.94
70336;SHT31;57756;47.408;18.940;2022-08-19T01:03:07;25.17;60.27
70336;SHT31;57756;47.408;18.940;2022-08-19T01:05:35;25.16;60.16
70336;SHT31;57756;47.408;18.940;2022-08-19T01:08:02;25.10;60.36
70336;SHT31;57756;47.408;18.940;2022-08-19T01:10:32;25.05;60.76
70336;SHT31;57756;47.408;18.940;2022-08-19T01:12:59;24.97;60.90
70336;SHT31;57756;47.408;18.940;2022-08-19T01:15:32;24.90;61.36
70336;SHT31;57756;47.408;18.940;2022-08-19T01:18:06;24.86;61.44
70336;SHT31;57756;47.408;18.940;2022-08-19T01:20:32;24.93;60.03
70336;SHT31;57756;47.408;18.940;2022-08-19T01:22:59;24.86;60.79
70336;SHT31;57756;47.408;18.940;2022-08-19T01:25:39;24.85;61.00
70336;SHT31;57756;47.408;18.940;2022-08-19T01:28:06;24.85;61.44
70336;SHT31;57756;47.408;18.940;2022-08-19T01:30:34;24.82;61.35
70336;SHT31;57756;47.408;18.940;2022-08-19T01:33:01;24.79;60.20
70336;SHT31;57756;47.408;18.940;2022-08-19T01:35:29;24.80;60.01
70336;SHT31;57756;47.408;18.940;2022-08-19T01:38:01;24.82;60.43
70336;SHT31;57756;47.408;18.940;2022-08-19T01:40:30;24.82;60.94
70336;SHT31;57756;47.408;18.940;2022-08-19T01:42:57;24.83;60.79
70336;SHT31;57756;47.408;18.940;2022-08-19T01:45:24;24.82;60.17
70336;SHT31;57756;47.408;18.940;2022-08-19T01:47:50;24.88;60.07
70336;SHT31;57756;47.408;18.940;2022-08-19T01:50:16;24.80;60.89
70336;SHT31;57756;47.408;18.940;2022-08-19T01:52:43;24.76;61.23
70336;SHT31;57756;47.408;18.940;2022-08-19T01:55:13;24.78;60.55
70336;SHT31;57756;47.408;18.940;2022-08-19T01:57:41;24.82;60.01
70336;SHT31;57756;47.408;18.940;2022-08-19T02:00:10;24.73;61.18
70336;SHT31;57756;47.408;18.940;2022-08-19T02:02:36;24.71;61.31
70336;SHT31;57756;47.408;18.940;2022-08-19T02:05:02;24.79;60.28
70336;SHT31;57756;47.408;18.940;2022-08-19T02:07:28;24.78;60.73
70336;SHT31;57756;47.408;18.940;2022-08-19T02:09:54;24.83;60.29
70336;SHT31;57756;47.408;18.940;2022-08-19T02:12:21;24.82;60.58
70336;SHT31;57756;47.408;18.940;2022-08-19T02:14:47;24.72;63.19
70336;SHT31;57756;47.408;18.940;2022-08-19T02:17:13;24.55;63.78
70336;SHT31;57756;47.408;18.940;2022-08-19T02:19:38;24.64;60.61
70336;SHT31;57756;47.408;18.940;2022-08-19T02:22:04;24.55;63.92
70336;SHT31;57756;47.408;18.940;2022-08-19T02:24:30;24.58;61.59
70336;SHT31;57756;47.408;18.940;2022-08-19T02:26:56;24.55;62.14
70336;SHT31;57756;47.408;18.940;2022-08-19T02:29:22;24.69;60.36
70336;SHT31;57756;47.408;18.940;2022-08-19T02:31:47;24.85;59.57
70336;SHT31;57756;47.408;18.940;2022-08-19T02:34:13;24.95;59.23
70336;SHT31;57756;47.408;18.940;2022-08-19T02:36:38;24.85;61.02
70336;SHT31;57756;47.408;18.940;2022-08-19T02:39:04;24.86;59.56
70336;SHT31;57756;47.408;18.940;2022-08-19T02:41:32;24.92;59.81
70336;SHT31;57756;47.408;18.940;2022-08-19T02:44:00;25.06;58.83
70336;SHT31;57756;47.408;18.940;2022-08-19T02:46:29;25.05;58.73
70336;SHT31;57756;47.408;18.940;2022-08-19T02:49:01;25.00;59.42
70336;SHT31;57756;47.408;18.940;2022-08-19T02:51:35;24.89;60.23
70336;SHT31;57756;47.408;18.940;2022-08-19T02:54:01;25.05;58.67
70336;SHT31;57756;47.408;18.940;2022-08-19T02:56:27;25.23;58.11
70336;SHT31;57756;47.408;18.940;2022-08-19T02:58:54;25.23;58.33
70336;SHT31;57756;47.408;18.940;2022-08-19T03:01:31;25.16;60.52
70336;SHT31;57756;47.408;18.940;2022-08-19T03:03:58;25.09;59.46
70336;SHT31;57756;47.408;18.940;2022-08-19T03:06:25;24.95;59.80
70336;SHT31;57756;47.408;18.940;2022-08-19T03:08:51;25.10;58.51
70336;SHT31;57756;47.408;18.940;2022-08-19T03:11:19;25.20;58.01
70336;SHT31;57756;47.408;18.940;2022-08-19T03:13:45;25.26;58.42
70336;SHT31;57756;47.408;18.940;2022-08-19T03:16:11;25.19;58.59
70336;SHT31;57756;47.408;18.940;2022-08-19T03:18:37;25.23;58.01
70336;SHT31;57756;47.408;18.940;2022-08-19T03:21:04;25.10;59.46
70336;SHT31;57756;47.408;18.940;2022-08-19T03:23:30;25.07;60.15
70336;SHT31;57756;47.408;18.940;2022-08-19T03:25:55;24.99;59.69
70336;SHT31;57756;47.408;18.940;2022-08-19T03:28:21;24.92;61.15
70336;SHT31;57756;47.408;18.940;2022-08-19T03:30:58;24.86;60.20
70336;SHT31;57756;47.408;18.940;2022-08-19T03:33:25;24.79;62.07
70336;SHT31;57756;47.408;18.940;2022-08-19T03:38:38;24.69;60.65
70336;SHT31;57756;47.408;18.940;2022-08-19T03:41:05;24.65;62.11
70336;SHT31;57756;47.408;18.940;2022-08-19T03:43:37;24.54;62.22
70336;SHT31;57756;47.408;18.940;2022-08-19T03:46:11;24.51;62.17
70336;SHT31;57756;47.408;18.940;2022-08-19T03:48:39;24.42;62.36
70336;SHT31;57756;47.408;18.940;2022-08-19T03:51:06;24.37;63.25
70336;SHT31;57756;47.408;18.940;2022-08-19T03:53:32;24.32;63.37
70336;SHT31;57756;47.408;18.940;2022-08-19T03:55:59;24.28;63.47
70336;SHT31;57756;47.408;18.940;2022-08-19T03:58:26;24.28;63.49
70336;SHT31;57756;47.408;18.940;2022-08-19T04:00:57;24.27;63.51
70336;SHT31;57756;47.408;18.940;2022-08-19T04:03:24;24.22;64.34
70336;SHT31;57756;47.408;18.940;2022-08-19T04:05:50;24.18;66.42
70336;SHT31;57756;47.408;18.940;2022-08-19T04:08:16;24.18;65.19
70336;SHT31;57756;47.408;18.940;2022-08-19T04:10:44;24.14;66.34
70336;SHT31;57756;47.408;18.940;2022-08-19T04:13:10;24.11;65.69
70336;SHT31;57756;47.408;18.940;2022-08-19T04:15:42;24.10;66.09
70336;SHT31;57756;47.408;18.940;2022-08-19T04:18:09;24.04;66.46
70336;SHT31;57756;47.408;18.940;2022-08-19T04:20:43;24.04;66.46
70336;SHT31;57756;47.408;18.940;2022-08-19T04:23:10;24.00;66.58
70336;SHT31;57756;47.408;18.940;2022-08-19T04:25:38;24.01;67.44
70336;SHT31;57756;47.408;18.940;2022-08-19T04:28:03;24.04;68.38
70336;SHT31;57756;47.408;18.940;2022-08-19T04:30:29;24.07;68.09
70336;SHT31;57756;47.408;18.940;2022-08-19T04:32:54;24.10;67.69
70336;SHT31;57756;47.408;18.940;2022-08-19T04:35:20;24.10;67.85
70336;SHT31;57756;47.408;18.940;2022-08-19T04:37:45;24.14;68.27
70336;SHT31;57756;47.408;18.940;2022-08-19T04:40:11;24.18;64.10
70336;SHT31;57756;47.408;18.940;2022-08-19T04:42:55;24.22;65.04
70336;SHT31;57756;47.408;18.940;2022-08-19T04:45:21;24.27;66.20
70336;SHT31;57756;47.408;18.940;2022-08-19T04:47:47;24.32;66.51
70336;SHT31;57756;47.408;18.940;2022-08-19T04:50:13;24.37;66.02
70336;SHT31;57756;47.408;18.940;2022-08-19T04:52:39;24.40;67.79
70336;SHT31;57756;47.408;18.940;2022-08-19T04:55:09;24.49;65.95
70336;SHT31;57756;47.408;18.940;2022-08-19T04:57:36;24.52;66.15
70336;SHT31;57756;47.408;18.940;2022-08-19T05:00:09;24.67;64.90
70336;SHT31;57756;47.408;18.940;2022-08-19T05:02:35;24.73;64.17
70336;SHT31;57756;47.408;18.940;2022-08-19T05:05:01;24.89;61.03
70336;SHT31;57756;47.408;18.940;2022-08-19T05:07:26;25.05;64.46
70336;SHT31;57756;47.408;18.940;2022-08-19T05:09:52;25.13;63.01
70336;SHT31;57756;47.408;18.940;2022-08-19T05:12:18;25.26;61.31
70336;SHT31;57756;47.408;18.940;2022-08-19T05:14:44;25.47;59.84
70336;SHT31;57756;47.408;18.940;2022-08-19T05:17:11;25.64;59.28
70336;SHT31;57756;47.408;18.940;2022-08-19T05:19:36;25.78;59.46
70336;SHT31;57756;47.408;18.940;2022-08-19T05:22:20;25.96;58.27
70336;SHT31;57756;47.408;18.940;2022-08-19T05:24:58;26.15;57.00
70336;SHT31;57756;47.408;18.940;2022-08-19T05:27:24;26.32;56.91
70336;SHT31;57756;47.408;18.940;2022-08-19T05:29:50;26.43;56.66
70336;SHT31;57756;47.408;18.940;2022-08-19T05:32:15;26.54;57.22
70336;SHT31;57756;47.408;18.940;2022-08-19T05:34:41;26.67;57.00
70336;SHT31;57756;47.408;18.940;2022-08-19T05:37:07;26.81;57.18
70336;SHT31;57756;47.408;18.940;2022-08-19T05:39:35;26.85;56.26
70336;SHT31;57756;47.408;18.940;2022-08-19T05:42:04;26.91;55.52
70336;SHT31;57756;47.408;18.940;2022-08-19T05:44:34;27.05;55.76
70336;SHT31;57756;47.408;18.940;2022-08-19T05:47:03;27.25;56.00
70336;SHT31;57756;47.408;18.940;2022-08-19T05:49:31;27.47;54.66
70336;SHT31;57756;47.408;18.940;2022-08-19T05:51:57;27.63;54.86
70336;SHT31;57756;47.408;18.940;2022-08-19T05:54:24;27.73;53.68
70336;SHT31;57756;47.408;18.940;2022-08-19T05:56:51;27.83;53.36
70336;SHT31;57756;47.408;18.940;2022-08-19T05:59:18;27.83;53.07
70336;SHT31;57756;47.408;18.940;2022-08-19T06:01:45;27.98;52.70
70336;SHT31;57756;47.408;18.940;2022-08-19T06:04:12;28.21;53.88
70336;SHT31;57756;47.408;18.940;2022-08-19T06:06:39;28.29;52.31
70336;SHT31;57756;47.408;18.940;2022-08-19T06:09:06;28.38;52.29
70336;SHT31;57756;47.408;18.940;2022-08-19T06:11:43;28.51;52.33
70336;SHT31;57756;47.408;18.940;2022-08-19T06:14:14;28.63;51.44
70336;SHT31;57756;47.408;18.940;2022-08-19T06:16:41;28.67;51.46
70336;SHT31;57756;47.408;18.940;2022-08-19T06:19:09;28.89;50.72
70336;SHT31;57756;47.408;18.940;2022-08-19T06:21:37;29.01;50.93
70336;SHT31;57756;47.408;18.940;2022-08-19T06:24:05;29.03;50.45
70336;SHT31;57756;47.408;18.940;2022-08-19T06:26:33;29.04;50.35
70336;SHT31;57756;47.408;18.940;2022-08-19T06:28:59;29.27;50.48
70336;SHT31;57756;47.408;18.940;2022-08-19T06:31:26;29.37;50.42
70336;SHT31;57756;47.408;18.940;2022-08-19T06:33:52;29.57;50.37
70336;SHT31;57756;47.408;18.940;2022-08-19T06:36:28;29.66;49.53
70336;SHT31;57756;47.408;18.940;2022-08-19T06:39:00;29.85;49.26
70336;SHT31;57756;47.408;18.940;2022-08-19T06:41:27;30.02;48.71
70336;SHT31;57756;47.408;18.940;2022-08-19T06:43:54;30.02;48.53
70336;SHT31;57756;47.408;18.940;2022-08-19T06:46:20;30.09;48.85
70336;SHT31;57756;47.408;18.940;2022-08-19T06:48:46;30.30;48.27
70336;SHT31;57756;47.408;18.940;2022-08-19T06:51:14;30.43;47.48
70336;SHT31;57756;47.408;18.940;2022-08-19T06:53:41;30.44;47.52
70336;SHT31;57756;47.408;18.940;2022-08-19T06:56:12;30.69;47.39
70336;SHT31;57756;47.408;18.940;2022-08-19T06:58:38;30.99;47.37
70336;SHT31;57756;47.408;18.940;2022-08-19T07:01:04;30.95;46.64
70336;SHT31;57756;47.408;18.940;2022-08-19T07:03:32;31.03;47.30
70336;SHT31;57756;47.408;18.940;2022-08-19T07:06:03;31.12;46.43
70336;SHT31;57756;47.408;18.940;2022-08-19T07:08:29;31.54;45.61
70336;SHT31;57756;47.408;18.940;2022-08-19T07:10:55;31.73;45.12
70336;SHT31;57756;47.408;18.940;2022-08-19T07:13:20;31.91;44.70
70336;SHT31;57756;47.408;18.940;2022-08-19T07:15:47;31.99;44.65
70336;SHT31;57756;47.408;18.940;2022-08-19T07:18:19;32.12;44.96
70336;SHT31;57756;47.408;18.940;2022-08-19T07:20:47;32.36;43.84
70336;SHT31;57756;47.408;18.940;2022-08-19T07:23:13;32.23;43.31
70336;SHT31;57756;47.408;18.940;2022-08-19T07:25:39;32.74;43.15
70336;SHT31;57756;47.408;18.940;2022-08-19T07:28:04;33.11;42.07
70336;SHT31;57756;47.408;18.940;2022-08-19T07:30:30;33.56;43.20
70336;SHT31;57756;47.408;18.940;2022-08-19T07:32:56;33.79;41.26
70336;SHT31;57756;47.408;18.940;2022-08-19T07:35:22;33.74;40.88
70336;SHT31;57756;47.408;18.940;2022-08-19T07:37:48;33.59;40.30
70336;SHT31;57756;47.408;18.940;2022-08-19T07:40:14;33.72;41.06
70336;SHT31;57756;47.408;18.940;2022-08-19T07:42:40;33.46;40.09
70336;SHT31;57756;47.408;18.940;2022-08-19T07:45:06;33.70;39.80
70336;SHT31;57756;47.408;18.940;2022-08-19T07:47:33;33.42;40.69
70336;SHT31;57756;47.408;18.940;2022-08-19T07:49:58;33.73;39.98
70336;SHT31;57756;47.408;18.940;2022-08-19T07:52:24;34.03;39.32
70336;SHT31;57756;47.408;18.940;2022-08-19T07:54:49;34.29;39.41
70336;SHT31;57756;47.408;18.940;2022-08-19T07:57:15;33.86;39.60
70336;SHT31;57756;47.408;18.940;2022-08-19T07:59:41;33.85;39.54
70336;SHT31;57756;47.408;18.940;2022-08-19T08:02:08;33.73;40.13
70336;SHT31;57756;47.408;18.940;2022-08-19T08:04:34;33.96;39.75
70336;SHT31;57756;47.408;18.940;2022-08-19T08:07:19;34.31;40.32
70336;SHT31;57756;47.408;18.940;2022-08-19T08:10:05;34.56;37.11
70336;SHT31;57756;47.408;18.940;2022-08-19T08:12:36;34.44;39.07
70336;SHT31;57756;47.408;18.940;2022-08-19T08:15:07;34.25;38.23
70336;SHT31;57756;47.408;18.940;2022-08-19T08:17:33;34.47;38.93
70336;SHT31;57756;47.408;18.940;2022-08-19T08:19:59;34.76;38.31
70336;SHT31;57756;47.408;18.940;2022-08-19T08:22:25;34.95;38.79
70336;SHT31;57756;47.408;18.940;2022-08-19T08:25:11;35.36;37.26
70336;SHT31;57756;47.408;18.940;2022-08-19T08:27:38;35.07;38.10
70336;SHT31;57756;47.408;18.940;2022-08-19T08:30:16;35.19;37.84
70336;SHT31;57756;47.408;18.940;2022-08-19T08:32:42;35.49;37.30
70336;SHT31;57756;47.408;18.940;2022-08-19T08:35:12;35.73;37.65
70336;SHT31;57756;47.408;18.940;2022-08-19T08:37:38;35.84;36.78
70336;SHT31;57756;47.408;18.940;2022-08-19T08:40:22;35.76;37.37
70336;SHT31;57756;47.408;18.940;2022-08-19T08:45:21;35.41;37.14
70336;SHT31;57756;47.408;18.940;2022-08-19T08:47:50;35.67;36.55
70336;SHT31;57756;47.408;18.940;2022-08-19T08:50:21;35.46;37.36
70336;SHT31;57756;47.408;18.940;2022-08-19T08:52:50;35.94;36.41
70336;SHT31;57756;47.408;18.940;2022-08-19T08:55:20;35.77;36.74
70336;SHT31;57756;47.408;18.940;2022-08-19T09:00:19;36.12;35.27
70336;SHT31;57756;47.408;18.940;2022-08-19T09:02:46;36.31;34.46
70336;SHT31;57756;47.408;18.940;2022-08-19T09:05:12;36.83;35.64
70336;SHT31;57756;47.408;18.940;2022-08-19T09:08:00;36.32;35.06
70336;SHT31;57756;47.408;18.940;2022-08-19T09:13:28;36.71;34.96
70336;SHT31;57756;47.408;18.940;2022-08-19T09:16:21;37.28;35.21
70336;SHT31;57756;47.408;18.940;2022-08-19T09:18:58;37.51;33.50
70336;SHT31;57756;47.408;18.940;2022-08-19T09:21:25;37.49;33.29
70336;SHT31;57756;47.408;18.940;2022-08-19T09:23:52;37.46;33.78
70336;SHT31;57756;47.408;18.940;2022-08-19T09:26:20;37.56;33.67
70336;SHT31;57756;47.408;18.940;2022-08-19T09:28:48;37.80;33.27
70336;SHT31;57756;47.408;18.940;2022-08-19T09:31:17;37.68;34.39
70336;SHT31;57756;47.408;18.940;2022-08-19T09:33:43;37.34;33.85
70336;SHT31;57756;47.408;18.940;2022-08-19T09:36:12;37.84;33.38
70336;SHT31;57756;47.408;18.940;2022-08-19T09:38:39;37.84;33.76
70336;SHT31;57756;47.408;18.940;2022-08-19T09:41:08;37.72;33.55
70336;SHT31;57756;47.408;18.940;2022-08-19T09:43:34;37.36;34.21
70336;SHT31;57756;47.408;18.940;2022-08-19T09:46:06;37.27;34.24
70336;SHT31;57756;47.408;18.940;2022-08-19T09:48:33;37.48;34.59
70336;SHT31;57756;47.408;18.940;2022-08-19T09:51:06;38.07;36.35
70336;SHT31;57756;47.408;18.940;2022-08-19T09:53:36;38.19;33.80
70336;SHT31;57756;47.408;18.940;2022-08-19T09:56:03;37.52;34.30
70336;SHT31;57756;47.408;18.940;2022-08-19T09:58:29;37.80;34.98
70336;SHT31;57756;47.408;18.940;2022-08-19T10:00:57;37.93;33.37
70336;SHT31;57756;47.408;18.940;2022-08-19T10:03:23;38.06;33.83
70336;SHT31;57756;47.408;18.940;2022-08-19T10:05:49;38.32;32.63
70336;SHT31;57756;47.408;18.940;2022-08-19T10:08:21;38.40;33.54
70336;SHT31;57756;47.408;18.940;2022-08-19T10:10:48;38.61;32.36
70336;SHT31;57756;47.408;18.940;2022-08-19T10:13:15;38.10;32.33
70336;SHT31;57756;47.408;18.940;2022-08-19T10:15:42;38.42;33.25
70336;SHT31;57756;47.408;18.940;2022-08-19T10:18:07;37.92;33.23
70336;SHT31;57756;47.408;18.940;2022-08-19T10:20:33;38.03;33.53
70336;SHT31;57756;47.408;18.940;2022-08-19T10:23:01;37.90;32.49
70336;SHT31;57756;47.408;18.940;2022-08-19T10:25:27;38.32;33.31
70336;SHT31;57756;47.408;18.940;2022-08-19T10:27:53;38.55;31.69
70336;SHT31;57756;47.408;18.940;2022-08-19T10:30:19;38.49;31.37
70336;SHT31;57756;47.408;18.940;2022-08-19T10:32:45;38.47;31.76
70336;SHT31;57756;47.408;18.940;2022-08-19T10:35:11;38.98;32.36
70336;SHT31;57756;47.408;18.940;2022-08-19T10:37:38;39.10;31.38
70336;SHT31;57756;47.408;18.940;2022-08-19T10:40:06;39.72;31.24
70336;SHT31;57756;47.408;18.940;2022-08-19T10:42:33;39.87;30.69
70336;SHT31;57756;47.408;18.940;2022-08-19T10:44:59;40.01;30.61
70336;SHT31;57756;47.408;18.940;2022-08-19T10:47:24;39.91;30.58
70336;SHT31;57756;47.408;18.940;2022-08-19T10:49:50;39.89;31.27
70336;SHT31;57756;47.408;18.940;2022-08-19T10:52:34;39.88;29.41
70336;SHT31;57756;47.408;18.940;2022-08-19T10:55:04;39.74;29.93
70336;SHT31;57756;47.408;18.940;2022-08-19T10:57:49;39.50;29.85
70336;SHT31;57756;47.408;18.940;2022-08-19T11:00:15;39.65;29.97
70336;SHT31;57756;47.408;18.940;2022-08-19T11:02:41;40.23;30.23
70336;SHT31;57756;47.408;18.940;2022-08-19T11:05:08;40.32;29.14
70336;SHT31;57756;47.408;18.940;2022-08-19T11:07:37;40.20;29.93
70336;SHT31;57756;47.408;18.940;2022-08-19T11:10:03;40.81;30.61
70336;SHT31;57756;47.408;18.940;2022-08-19T11:12:29;41.00;30.25
70336;SHT31;57756;47.408;18.940;2022-08-19T11:14:54;40.81;29.23
70336;SHT31;57756;47.408;18.940;2022-08-19T11:17:20;40.04;29.32
70336;SHT31;57756;47.408;18.940;2022-08-19T11:19:48;40.88;29.85
70336;SHT31;57756;47.408;18.940;2022-08-19T11:22:15;40.52;28.94
70336;SHT31;57756;47.408;18.940;2022-08-19T11:24:40;40.46;28.37
70336;SHT31;57756;47.408;18.940;2022-08-19T11:27:08;40.39;29.62
70336;SHT31;57756;47.408;18.940;2022-08-19T11:29:39;40.53;29.35
70336;SHT31;57756;47.408;18.940;2022-08-19T11:32:07;40.29;29.57
70336;SHT31;57756;47.408;18.940;2022-08-19T11:34:34;39.65;30.11
70336;SHT31;57756;47.408;18.940;2022-08-19T11:37:01;39.74;30.25
70336;SHT31;57756;47.408;18.940;2022-08-19T11:39:29;40.08;29.86
70336;SHT31;57756;47.408;18.940;2022-08-19T11:41:57;40.60;29.47
70336;SHT31;57756;47.408;18.940;2022-08-19T11:44:23;40.22;29.50
70336;SHT31;57756;47.408;18.940;2022-08-19T11:46:49;39.80;30.90
70336;SHT31;57756;47.408;18.940;2022-08-19T11:49:16;39.71;30.47
70336;SHT31;57756;47.408;18.940;2022-08-19T11:51:44;38.72;30.72
70336;SHT31;57756;47.408;18.940;2022-08-19T11:54:12;38.83;31.19
70336;SHT31;57756;47.408;18.940;2022-08-19T11:56:39;39.30;30.77
70336;SHT31;57756;47.408;18.940;2022-08-19T11:59:05;39.29;31.37
70336;SHT31;57756;47.408;18.940;2022-08-19T12:01:30;39.50;31.09
70336;SHT31;57756;47.408;18.940;2022-08-19T12:03:57;39.30;30.49
70336;SHT31;57756;47.408;18.940;2022-08-19T12:06:26;39.22;31.13
70336;SHT31;57756;47.408;18.940;2022-08-19T12:08:55;38.95;31.35
70336;SHT31;57756;47.408;18.940;2022-08-19T12:11:22;39.06;30.74
70336;SHT31;57756;47.408;18.940;2022-08-19T12:13:47;38.99;31.07
70336;SHT31;57756;47.408;18.940;2022-08-19T12:16:19;38.99;30.75
70336;SHT31;57756;47.408;18.940;2022-08-19T12:18:45;39.30;31.48
70336;SHT31;57756;47.408;18.940;2022-08-19T12:21:18;39.05;31.80
70336;SHT31;57756;47.408;18.940;2022-08-19T12:23:46;38.68;31.30
70336;SHT31;57756;47.408;18.940;2022-08-19T12:26:12;38.64;31.96
70336;SHT31;57756;47.408;18.940;2022-08-19T12:28:38;38.83;32.37
70336;SHT31;57756;47.408;18.940;2022-08-19T12:31:04;38.82;32.84
70336;SHT31;57756;47.408;18.940;2022-08-19T12:33:29;38.96;31.22
70336;SHT31;57756;47.408;18.940;2022-08-19T12:36:03;38.91;30.94
70336;SHT31;57756;47.408;18.940;2022-08-19T12:38:30;38.62;30.62
70336;SHT31;57756;47.408;18.940;2022-08-19T12:40:57;38.71;30.29
70336;SHT31;57756;47.408;18.940;2022-08-19T12:43:23;38.92;31.75
70336;SHT31;57756;47.408;18.940;2022-08-19T12:45:49;38.74;30.64
70336;SHT31;57756;47.408;18.940;2022-08-19T12:48:16;38.67;30.39
70336;SHT31;57756;47.408;18.940;2022-08-19T12:50:43;38.37;30.86
70336;SHT31;57756;47.408;18.940;2022-08-19T12:53:11;38.37;31.28
70336;SHT31;57756;47.408;18.940;2022-08-19T12:55:36;38.34;31.06
70336;SHT31;57756;47.408;18.940;2022-08-19T12:58:02;38.23;30.92
70336;SHT31;57756;47.408;18.940;2022-08-19T13:00:28;38.40;31.08
70336;SHT31;57756;47.408;18.940;2022-08-19T13:02:54;38.40;31.08
70336;SHT31;57756;47.408;18.940;2022-08-19T13:05:22;38.40;31.58
70336;SHT31;57756;47.408;18.940;2022-08-19T13:07:50;38.32;31.48
70336;SHT31;57756;47.408;18.940;2022-08-19T13:10:18;38.32;33.26
70336;SHT31;57756;47.408;18.940;2022-08-19T13:12:46;38.37;33.35
70336;SHT31;57756;47.408;18.940;2022-08-19T13:15:13;38.49;31.33
70336;SHT31;57756;47.408;18.940;2022-08-19T13:17:39;38.07;31.58
70336;SHT31;57756;47.408;18.940;2022-08-19T13:20:06;38.07;32.03
70336;SHT31;57756;47.408;18.940;2022-08-19T13:22:33;38.14;33.32
70336;SHT31;57756;47.408;18.940;2022-08-19T13:25:01;38.00;32.51
70336;SHT31;57756;47.408;18.940;2022-08-19T13:27:27;37.77;33.53
70336;SHT31;57756;47.408;18.940;2022-08-19T13:29:52;37.69;34.50
70336;SHT31;57756;47.408;18.940;2022-08-19T13:32:36;37.36;35.16
70336;SHT31;57756;47.408;18.940;2022-08-19T13:35:20;37.29;35.03
70336;SHT31;57756;47.408;18.940;2022-08-19T13:37:46;37.07;35.99
70336;SHT31;57756;47.408;18.940;2022-08-19T13:40:20;37.11;35.94
70336;SHT31;57756;47.408;18.940;2022-08-19T13:42:50;37.07;36.23
70336;SHT31;57756;47.408;18.940;2022-08-19T13:45:21;36.97;37.40
70336;SHT31;57756;47.408;18.940;2022-08-19T13:47:49;36.83;37.72
70336;SHT31;57756;47.408;18.940;2022-08-19T13:50:18;36.39;37.45
70336;SHT31;57756;47.408;18.940;2022-08-19T13:52:44;36.12;38.72
70336;SHT31;57756;47.408;18.940;2022-08-19T13:55:11;36.08;38.18
70336;SHT31;57756;47.408;18.940;2022-08-19T13:57:37;35.82;38.98
70336;SHT31;57756;47.408;18.940;2022-08-19T14:00:13;35.53;39.47
70336;SHT31;57756;47.408;18.940;2022-08-19T14:02:39;35.36;39.13
70336;SHT31;57756;47.408;18.940;2022-08-19T14:05:08;35.09;39.60
70336;SHT31;57756;47.408;18.940;2022-08-19T14:07:34;34.68;39.73
70336;SHT31;57756;47.408;18.940;2022-08-19T14:09:59;34.61;40.00
70336;SHT31;57756;47.408;18.940;2022-08-19T14:12:25;34.71;40.39
70336;SHT31;57756;47.408;18.940;2022-08-19T14:14:50;34.59;40.37
70336;SHT31;57756;47.408;18.940;2022-08-19T14:17:16;34.52;40.73
70336;SHT31;57756;47.408;18.940;2022-08-19T14:19:42;34.18;40.78
70336;SHT31;57756;47.408;18.940;2022-08-19T14:22:08;34.09;40.28
70336;SHT31;57756;47.408;18.940;2022-08-19T14:24:34;33.88;40.57
70336;SHT31;57756;47.408;18.940;2022-08-19T14:26:59;33.77;40.86
70336;SHT31;57756;47.408;18.940;2022-08-19T14:29:25;33.83;39.70
70336;SHT31;57756;47.408;18.940;2022-08-19T14:31:52;33.77;38.18
70336;SHT31;57756;47.408;18.940;2022-08-19T14:34:18;33.61;37.51
70336;SHT31;57756;47.408;18.940;2022-08-19T14:36:43;33.35;36.86
70336;SHT31;57756;47.408;18.940;2022-08-19T14:39:10;33.39;37.05
70336;SHT31;57756;47.408;18.940;2022-08-19T14:41:40;33.36;36.33
70336;SHT31;57756;47.408;18.940;2022-08-19T14:44:06;33.41;36.66
70336;SHT31;57756;47.408;18.940;2022-08-19T14:46:31;33.58;35.90
70336;SHT31;57756;47.408;18.940;2022-08-19T14:48:57;33.43;36.30
70336;SHT31;57756;47.408;18.940;2022-08-19T14:51:24;33.17;36.48
70336;SHT31;57756;47.408;18.940;2022-08-19T14:53:53;33.12;37.11
70336;SHT31;57756;47.408;18.940;2022-08-19T14:56:21;33.12;37.03
70336;SHT31;57756;47.408;18.940;2022-08-19T14:58:47;33.12;37.00
70336;SHT31;57756;47.408;18.940;2022-08-19T15:01:17;32.96;37.07
70336;SHT31;57756;47.408;18.940;2022-08-19T15:03:42;32.96;37.21
70336;SHT31;57756;47.408;18.940;2022-08-19T15:06:08;32.91;37.04
70336;SHT31;57756;47.408;18.940;2022-08-19T15:08:36;33.03;36.90
70336;SHT31;57756;47.408;18.940;2022-08-19T15:11:12;32.98;36.67
70336;SHT31;57756;47.408;18.940;2022-08-19T15:13:40;32.81;37.23
70336;SHT31;57756;47.408;18.940;2022-08-19T15:16:07;32.63;37.09
70336;SHT31;57756;47.408;18.940;2022-08-19T15:18:33;32.49;37.28
70336;SHT31;57756;47.408;18.940;2022-08-19T15:21:00;32.57;37.86
70336;SHT31;57756;47.408;18.940;2022-08-19T15:23:26;32.43;37.71
70336;SHT31;57756;47.408;18.940;2022-08-19T15:25:52;32.29;37.37
70336;SHT31;57756;47.408;18.940;2022-08-19T15:28:24;32.26;37.58
70336;SHT31;57756;47.408;18.940;2022-08-19T15:30:50;32.18;37.46